createdAt,value
2023-04-01T00:01:00.535Z,6.96
2023-04-01T00:03:30.674Z,6.74
2023-04-01T00:05:58.406Z,6.51
2023-04-01T00:08:25.699Z,6.58
2023-04-01T00:10:52.374Z,6.47
2023-04-01T00:13:19.198Z,6.49
2023-04-01T00:15:45.941Z,6.55
2023-04-01T00:18:12.910Z,6.87
2023-04-01T00:20:39.625Z,6.62
2023-04-01T00:23:06.316Z,6.75
2023-04-01T00:25:33.324Z,6.71
2023-04-01T00:28:00.383Z,6.67
2023-04-01T00:30:27.231Z,6.64
2023-04-01T00:32:54.414Z,7.04
2023-04-01T00:35:21.284Z,6.97
2023-04-01T00:37:48.429Z,7.09
2023-04-01T00:40:32.465Z,7.09
2023-04-01T00:42:59.203Z,6.83
2023-04-01T00:45:31.021Z,7.06
2023-04-01T00:47:58.040Z,7.12
2023-04-01T00:50:24.670Z,6.91
2023-04-01T00:52:51.344Z,6.94
2023-04-01T00:55:18.216Z,7.16
2023-04-01T00:57:44.849Z,7.13
2023-04-01T01:00:14.999Z,7.21
2023-04-01T01:02:46.014Z,7.25
2023-04-01T01:05:14.520Z,7.25
2023-04-01T01:07:49.022Z,7.24
2023-04-01T01:10:26.213Z,7.19
2023-04-01T01:12:52.797Z,7.15
2023-04-01T01:15:32.577Z,7.18
2023-04-01T01:18:02.673Z,7.17
2023-04-01T01:20:35.398Z,7.31
2023-04-01T01:23:08.149Z,7.31
2023-04-01T01:25:49.584Z,7.31
2023-04-01T01:28:19.139Z,7.39
2023-04-01T01:31:07.400Z,7.30
2023-04-01T01:34:18.682Z,7.11
2023-04-01T01:36:46.184Z,6.62
2023-04-01T01:39:12.923Z,6.43
2023-04-01T01:41:39.631Z,6.18
2023-04-01T01:44:08.065Z,6.26
2023-04-01T01:46:34.842Z,6.36
2023-04-01T01:49:01.631Z,6.19
2023-04-01T01:51:28.549Z,6.33
2023-04-01T01:53:55.380Z,6.40
2023-04-01T01:56:23.680Z,6.53
2023-04-01T01:58:52.332Z,6.45
2023-04-01T02:01:21.873Z,6.29
2023-04-01T02:03:48.697Z,6.38
2023-04-01T02:06:18.086Z,6.30
2023-04-01T02:09:05.537Z,6.29
2023-04-01T02:11:52.506Z,6.42
2023-04-01T02:14:23.949Z,6.61
2023-04-01T02:17:11.126Z,6.70
2023-04-01T02:19:40.717Z,6.45
2023-04-01T02:22:10.257Z,6.48
2023-04-01T02:24:37.033Z,6.25
2023-04-01T02:27:04.406Z,6.38
2023-04-01T02:29:31.185Z,6.42
2023-04-01T02:31:57.856Z,6.47
2023-04-01T02:34:24.494Z,6.73
2023-04-01T02:36:51.524Z,6.61
2023-04-01T02:39:18.578Z,6.58
2023-04-01T02:41:45.926Z,6.65
2023-04-01T02:44:13.238Z,6.67
2023-04-01T02:46:40.003Z,6.65
2023-04-01T02:49:06.716Z,6.56
2023-04-01T02:51:33.887Z,6.50
2023-04-01T02:54:00.679Z,6.52
2023-04-01T02:56:27.447Z,6.50
2023-04-01T02:58:54.823Z,6.57
2023-04-01T03:01:21.770Z,6.63
2023-04-01T03:03:48.542Z,6.43
2023-04-01T03:06:15.979Z,6.56
2023-04-01T03:08:42.738Z,6.67
2023-04-01T03:11:10.907Z,6.54
2023-04-01T03:13:37.747Z,6.66
2023-04-01T03:16:04.657Z,6.56
2023-04-01T03:18:31.388Z,6.32
2023-04-01T03:20:58.084Z,6.32
2023-04-01T03:23:25.363Z,6.29
2023-04-01T03:25:52.012Z,6.43
2023-04-01T03:28:18.621Z,6.66
2023-04-01T03:30:45.432Z,6.89
2023-04-01T03:33:12.126Z,7.17
2023-04-01T03:35:38.723Z,7.44
2023-04-01T03:38:05.427Z,7.36
2023-04-01T03:40:34.089Z,7.49
2023-04-01T03:43:00.962Z,7.44
2023-04-01T03:45:27.749Z,7.51
2023-04-01T03:47:54.904Z,7.44
2023-04-01T03:50:21.566Z,7.75
2023-04-01T03:52:48.250Z,7.68
2023-04-01T03:55:14.955Z,7.76
2023-04-01T03:57:41.611Z,8.11
2023-04-01T04:00:09.751Z,8.51
2023-04-01T04:02:36.693Z,8.59
2023-04-01T04:05:03.575Z,8.09
2023-04-01T04:07:30.293Z,8.07
2023-04-01T04:09:57.027Z,8.13
2023-04-01T04:12:23.667Z,8.19
2023-04-01T04:14:50.335Z,7.83
2023-04-01T04:17:17.402Z,7.63
2023-04-01T04:19:44.298Z,7.83
2023-04-01T04:22:11.025Z,7.69
2023-04-01T04:24:37.853Z,7.76
2023-04-01T04:27:04.775Z,7.87
2023-04-01T04:29:31.379Z,7.61
2023-04-01T04:31:58.063Z,7.72
2023-04-01T04:34:24.770Z,7.30
2023-04-01T04:36:51.666Z,7.36
2023-04-01T04:39:18.357Z,7.51
2023-04-01T04:41:45.009Z,7.23
2023-04-01T04:44:11.643Z,7.33
2023-04-01T04:46:40.403Z,7.29
2023-04-01T04:49:07.426Z,7.55
2023-04-01T04:51:37.040Z,7.29
2023-04-01T04:54:04.379Z,7.50
2023-04-01T04:56:31.803Z,7.38
2023-04-01T04:58:58.662Z,7.82
2023-04-01T05:01:25.690Z,7.81
2023-04-01T05:03:52.695Z,7.71
2023-04-01T05:06:20.580Z,7.77
2023-04-01T05:08:48.899Z,7.88
2023-04-01T05:11:19.654Z,7.84
2023-04-01T05:13:46.296Z,7.90
2023-04-01T05:16:14.722Z,8.23
2023-04-01T05:18:41.433Z,8.42
2023-04-01T05:21:08.863Z,8.30
2023-04-01T05:23:35.600Z,8.17
2023-04-01T05:26:09.605Z,8.13
2023-04-01T05:28:36.297Z,8.29
2023-04-01T05:31:03.967Z,8.52
2023-04-01T05:33:30.890Z,8.57
2023-04-01T05:35:57.841Z,8.47
2023-04-01T05:38:24.479Z,8.56
2023-04-01T05:40:51.176Z,8.42
2023-04-01T05:43:17.828Z,8.18
2023-04-01T05:45:44.450Z,8.12
2023-04-01T05:48:11.108Z,8.62
2023-04-01T05:50:37.767Z,8.80
2023-04-01T05:53:04.471Z,8.98
2023-04-01T05:55:31.733Z,9.23
2023-04-01T05:57:58.562Z,9.01
2023-04-01T06:00:25.234Z,8.84
2023-04-01T06:02:53.336Z,9.37
2023-04-01T06:05:22.368Z,9.68
2023-04-01T06:07:49.095Z,9.64
2023-04-01T06:10:18.005Z,10.27
2023-04-01T06:12:59.078Z,10.50
2023-04-01T06:15:32.859Z,11.20
2023-04-01T06:18:03.521Z,11.48
2023-04-01T06:20:40.609Z,11.78
2023-04-01T06:23:28.719Z,11.98
2023-04-01T06:25:58.056Z,12.29
2023-04-01T06:28:46.394Z,12.33
2023-04-01T06:31:16.008Z,12.70
2023-04-01T06:34:02.675Z,12.85
2023-04-01T06:36:45.047Z,13.14
2023-04-01T06:39:36.631Z,12.97
2023-04-01T06:42:27.946Z,12.94
2023-04-01T06:45:09.801Z,13.31
2023-04-01T06:48:06.715Z,13.61
2023-04-01T06:51:00.894Z,14.09
2023-04-01T06:53:48.914Z,14.04
2023-04-01T06:56:17.833Z,13.99
2023-04-01T06:58:51.083Z,13.87
2023-04-01T07:01:27.839Z,13.71
2023-04-01T07:04:04.121Z,13.87
2023-04-01T07:06:37.600Z,14.25
2023-04-01T07:09:07.594Z,13.96
2023-04-01T07:11:35.999Z,14.02
2023-04-01T07:14:03.629Z,14.06
2023-04-01T07:16:50.436Z,14.12
2023-04-01T07:19:30.507Z,14.33
2023-04-01T07:22:28.042Z,13.77
2023-04-01T07:24:54.961Z,13.75
2023-04-01T07:27:21.710Z,13.53
2023-04-01T07:29:48.488Z,13.78
2023-04-01T07:32:20.775Z,13.48
2023-04-01T07:34:47.396Z,13.67
2023-04-01T07:37:19.178Z,14.11
2023-04-01T07:40:04.373Z,13.98
2023-04-01T07:43:07.126Z,14.07
2023-04-01T07:46:00.753Z,14.11
2023-04-01T07:48:32.232Z,14.27
2023-04-01T07:51:11.226Z,14.26
2023-04-01T07:54:18.300Z,13.96
2023-04-01T07:56:50.696Z,14.07
2023-04-01T07:59:26.068Z,14.06
2023-04-01T08:02:13.820Z,14.43
2023-04-01T08:05:13.469Z,14.94
2023-04-01T08:08:01.870Z,15.26
2023-04-01T08:10:37.930Z,15.03
2023-04-01T08:13:27.140Z,14.98
2023-04-01T08:16:54.520Z,15.19
2023-04-01T08:19:29.645Z,15.44
2023-04-01T08:21:58.509Z,15.55
2023-04-01T08:24:46.554Z,15.60
2023-04-01T08:27:40.956Z,15.56
2023-04-01T08:30:25.509Z,15.65
2023-04-01T08:33:08.395Z,15.58
2023-04-01T08:35:49.291Z,15.33
2023-04-01T08:38:22.732Z,15.20
2023-04-01T08:41:02.332Z,15.31
2023-04-01T08:44:06.421Z,15.51
2023-04-01T08:46:51.349Z,15.90
2023-04-01T08:49:48.999Z,15.71
2023-04-01T08:52:34.538Z,15.51
2023-04-01T08:55:19.808Z,15.45
2023-04-01T08:57:58.803Z,15.36
2023-04-01T09:00:32.823Z,15.29
2023-04-01T09:03:11.623Z,15.24
2023-04-01T09:05:48.272Z,15.45
2023-04-01T09:08:25.942Z,15.75
2023-04-01T09:11:13.584Z,15.70
2023-04-01T09:13:52.375Z,16.08
2023-04-01T09:16:21.540Z,16.09
2023-04-01T09:19:13.206Z,16.57
2023-04-01T09:21:42.891Z,16.88
2023-04-01T09:24:41.317Z,16.52
2023-04-01T09:27:14.083Z,16.51
2023-04-01T09:30:02.004Z,16.83
2023-04-01T09:32:28.638Z,17.32
2023-04-01T09:34:55.791Z,17.56
2023-04-01T09:37:42.592Z,17.92
2023-04-01T09:40:18.681Z,18.10
2023-04-01T09:43:03.845Z,18.34
2023-04-01T09:45:44.260Z,18.72
2023-04-01T09:48:43.209Z,19.10
2023-04-01T09:51:42.148Z,19.03
2023-04-01T09:54:47.373Z,18.70
2023-04-01T09:57:32.695Z,18.14
2023-04-01T10:00:26.558Z,17.77
2023-04-01T10:03:21.081Z,17.54
2023-04-01T10:06:09.399Z,17.83
2023-04-01T10:09:23.410Z,18.49
2023-04-01T10:12:20.667Z,18.35
2023-04-01T10:15:24.732Z,18.05
2023-04-01T10:17:54.306Z,18.25
2023-04-01T10:20:32.789Z,18.21
2023-04-01T10:23:24.253Z,18.17
2023-04-01T10:25:55.017Z,17.70
2023-04-01T10:28:54.590Z,18.14
2023-04-01T10:31:55.292Z,18.08
2023-04-01T10:34:28.222Z,18.24
2023-04-01T10:36:59.089Z,18.62
2023-04-01T10:39:50.009Z,17.93
2023-04-01T10:42:41.628Z,17.60
2023-04-01T10:45:20.689Z,17.18
2023-04-01T10:47:53.244Z,17.09
2023-04-01T10:50:49.990Z,16.40
2023-04-01T10:53:33.581Z,16.18
2023-04-01T10:56:12.305Z,16.44
2023-04-01T10:59:03.726Z,15.63
2023-04-01T11:01:54.942Z,15.99
2023-04-01T11:05:04.030Z,16.01
2023-04-01T11:07:48.372Z,16.32
2023-04-01T11:10:37.765Z,16.19
2023-04-01T11:13:32.015Z,16.07
2023-04-01T11:16:18.425Z,16.05
2023-04-01T11:19:10.549Z,15.92
2023-04-01T11:21:46.335Z,16.20
2023-04-01T11:24:12.811Z,16.31
2023-04-01T11:26:45.472Z,16.19
2023-04-01T11:29:33.750Z,16.04
2023-04-01T11:32:37.810Z,16.05
2023-04-01T11:35:22.192Z,16.26
2023-04-01T11:38:04.356Z,16.20
2023-04-01T11:40:58.493Z,16.07
2023-04-01T11:43:40.214Z,16.11
2023-04-01T11:46:16.568Z,16.14
2023-04-01T11:49:04.845Z,16.17
2023-04-01T11:51:50.184Z,16.14
2023-04-01T11:54:45.963Z,15.97
2023-04-01T11:57:18.473Z,15.64
2023-04-01T12:00:03.784Z,15.01
2023-04-01T12:02:50.160Z,14.01
2023-04-01T12:05:35.613Z,13.28
2023-04-01T12:08:10.921Z,11.79
2023-04-01T12:10:41.850Z,10.59
2023-04-01T12:13:17.508Z,10.25
2023-04-01T12:16:08.521Z,10.27
2023-04-01T12:19:17.154Z,9.95
2023-04-01T12:22:11.461Z,9.45
2023-04-01T12:24:49.184Z,9.44
2023-04-01T12:27:16.909Z,9.55
2023-04-01T12:29:51.536Z,9.84
2023-04-01T12:32:40.067Z,9.62
2023-04-01T12:35:19.895Z,9.79
2023-04-01T12:37:55.696Z,9.79
2023-04-01T12:40:37.507Z,9.80
2023-04-01T12:43:19.308Z,9.37
2023-04-01T12:46:07.599Z,9.59
2023-04-01T12:48:40.499Z,9.39
2023-04-01T12:51:27.990Z,9.13
2023-04-01T12:54:09.672Z,9.47
2023-04-01T12:56:55.776Z,9.78
2023-04-01T12:59:28.755Z,10.01
2023-04-01T13:02:07.992Z,10.24
2023-04-01T13:04:37.227Z,10.80
2023-04-01T13:07:16.260Z,10.94
2023-04-01T13:10:01.294Z,11.38
2023-04-01T13:12:46.547Z,11.63
2023-04-01T13:15:32.575Z,11.52
2023-04-01T13:18:23.079Z,11.40
2023-04-01T13:21:09.987Z,11.10
2023-04-01T13:23:46.399Z,10.96
2023-04-01T13:26:31.817Z,10.94
2023-04-01T13:29:00.877Z,10.70
2023-04-01T13:31:47.362Z,10.61
2023-04-01T13:34:42.510Z,10.61
2023-04-01T13:37:24.231Z,11.18
2023-04-01T13:40:06.163Z,11.05
2023-04-01T13:42:35.291Z,11.69
2023-04-01T13:45:03.873Z,11.06
2023-04-01T13:48:21.269Z,11.58
2023-04-01T13:51:03.238Z,11.94
2023-04-01T13:53:53.838Z,12.02
2023-04-01T13:56:58.303Z,12.05
2023-04-01T13:59:27.753Z,11.48
2023-04-01T14:01:58.144Z,11.38
2023-04-01T14:04:43.008Z,11.43
2023-04-01T14:07:19.511Z,11.49
2023-04-01T14:10:10.234Z,11.39
2023-04-01T14:12:57.589Z,11.44
2023-04-01T14:15:31.105Z,11.37
2023-04-01T14:18:04.003Z,11.55
2023-04-01T14:20:31.384Z,11.77
2023-04-01T14:23:08.544Z,11.83
2023-04-01T14:25:50.328Z,11.64
2023-04-01T14:28:24.250Z,11.75
2023-04-01T14:31:18.455Z,11.32
2023-04-01T14:34:16.100Z,11.14
2023-04-01T14:36:51.563Z,10.80
2023-04-01T14:39:45.577Z,10.62
2023-04-01T14:42:36.488Z,10.71
2023-04-01T14:45:26.056Z,10.65
2023-04-01T14:47:56.172Z,10.57
2023-04-01T14:50:28.156Z,10.39
2023-04-01T14:53:24.697Z,10.49
2023-04-01T14:55:56.364Z,10.38
2023-04-01T14:58:26.402Z,9.83
2023-04-01T15:01:21.849Z,9.78
2023-04-01T15:03:51.517Z,9.73
2023-04-01T15:06:42.516Z,9.72
2023-04-01T15:09:41.450Z,9.52
2023-04-01T15:12:35.747Z,10.19
2023-04-01T15:15:27.408Z,10.71
2023-04-01T15:18:13.926Z,11.03
2023-04-01T15:21:05.014Z,11.06
2023-04-01T15:23:46.625Z,11.03
2023-04-01T15:26:21.489Z,11.03
2023-04-01T15:28:54.599Z,11.19
2023-04-01T15:31:40.951Z,11.18
2023-04-01T15:34:28.465Z,11.46
2023-04-01T15:37:24.419Z,11.40
2023-04-01T15:40:16.928Z,12.02
2023-04-01T15:43:01.747Z,12.64
2023-04-01T15:45:36.400Z,12.92
2023-04-01T15:48:24.973Z,12.64
2023-04-01T15:51:33.055Z,12.51
2023-04-01T15:54:25.173Z,12.47
2023-04-01T15:57:26.077Z,12.01
2023-04-01T16:00:11.899Z,12.03
2023-04-01T16:02:54.390Z,12.95
2023-04-01T16:05:55.100Z,12.49
2023-04-01T16:08:25.896Z,12.06
2023-04-01T16:10:58.372Z,12.00
2023-04-01T16:13:46.392Z,11.73
2023-04-01T16:16:43.832Z,11.71
2023-04-01T16:19:32.697Z,11.72
2023-04-01T16:22:12.753Z,11.45
2023-04-01T16:24:54.578Z,11.01
2023-04-01T16:27:41.502Z,10.83
2023-04-01T16:30:28.894Z,10.64
2023-04-01T16:32:58.540Z,10.68
2023-04-01T16:35:31.316Z,10.75
2023-04-01T16:38:10.223Z,10.59
2023-04-01T16:40:51.979Z,9.33
2023-04-01T16:43:29.964Z,9.06
2023-04-01T16:46:28.566Z,9.19
2023-04-01T16:49:01.906Z,8.66
2023-04-01T16:51:57.051Z,8.42
2023-04-01T16:54:50.068Z,8.61
2023-04-01T16:57:44.620Z,8.76
2023-04-01T17:00:52.590Z,8.72
2023-04-01T17:03:45.279Z,8.55
2023-04-01T17:06:43.472Z,8.70
2023-04-01T17:09:39.191Z,8.25
2023-04-01T17:12:27.987Z,7.54
2023-04-01T17:15:22.700Z,6.99
2023-04-01T17:18:14.750Z,6.79
2023-04-01T17:21:02.517Z,6.80
2023-04-01T17:23:53.825Z,6.79
2023-04-01T17:26:33.978Z,6.70
2023-04-01T17:29:24.389Z,6.86
2023-04-01T17:32:06.069Z,7.00
2023-04-01T17:34:39.566Z,6.93
2023-04-01T17:37:18.541Z,6.80
2023-04-01T17:40:06.714Z,6.77
2023-04-01T17:43:29.971Z,7.12
2023-04-01T17:46:03.214Z,7.24
2023-04-01T17:48:47.006Z,7.04
2023-04-01T17:51:24.570Z,6.78
2023-04-01T17:54:11.489Z,6.94
2023-04-01T17:57:04.151Z,7.04
2023-04-01T17:59:37.502Z,7.09
2023-04-01T18:02:23.225Z,6.77
2023-04-01T18:05:05.448Z,6.89
2023-04-01T18:07:50.276Z,6.93
2023-04-01T18:10:35.625Z,6.92
2023-04-01T18:13:27.398Z,6.79
2023-04-01T18:16:16.972Z,6.92
2023-04-01T18:18:54.860Z,6.88
2023-04-01T18:21:36.926Z,6.77
2023-04-01T18:24:44.477Z,6.55
2023-04-01T18:27:18.665Z,6.77
2023-04-01T18:29:51.688Z,6.66
2023-04-01T18:32:36.311Z,6.88
2023-04-01T18:35:35.845Z,6.85
2023-04-01T18:38:32.870Z,6.76
2023-04-01T18:41:14.958Z,6.78
2023-04-01T18:43:48.041Z,7.04
2023-04-01T18:46:34.501Z,7.02
2023-04-01T18:49:28.548Z,6.83
2023-04-01T18:52:09.680Z,6.60
2023-04-01T18:55:04.168Z,6.94
2023-04-01T18:57:57.685Z,7.07
2023-04-01T19:00:29.067Z,7.17
2023-04-01T19:03:20.559Z,7.25
2023-04-01T19:05:48.304Z,7.17
2023-04-01T19:08:35.729Z,7.20
2023-04-01T19:11:34.629Z,7.05
2023-04-01T19:14:10.215Z,7.02
2023-04-01T19:17:10.999Z,6.94
2023-04-01T19:20:01.877Z,6.65
2023-04-01T19:22:40.514Z,6.60
2023-04-01T19:25:55.316Z,6.47
2023-04-01T19:28:38.871Z,6.18
2023-04-01T19:31:40.285Z,6.30
2023-04-01T19:34:47.391Z,6.56
2023-04-01T19:37:23.122Z,6.59
2023-04-01T19:40:27.990Z,6.26
2023-04-01T19:43:11.640Z,6.19
2023-04-01T19:45:38.285Z,6.21
2023-04-01T19:48:39.533Z,6.22
2023-04-01T19:51:14.743Z,6.10
2023-04-01T19:54:00.804Z,6.16
2023-04-01T19:56:41.023Z,6.03
2023-04-01T19:59:30.014Z,6.07
2023-04-01T20:02:16.799Z,6.09
2023-04-01T20:04:45.357Z,6.18
2023-04-01T20:07:26.951Z,6.16
2023-04-01T20:10:04.354Z,6.09
2023-04-01T20:12:36.896Z,6.26
2023-04-01T20:15:05.730Z,6.01
2023-04-01T20:17:43.466Z,6.14
2023-04-01T20:20:10.021Z,5.98
2023-04-01T20:22:45.707Z,5.97
2023-04-01T20:25:49.626Z,6.03
2023-04-01T20:28:19.198Z,6.12
2023-04-01T20:31:06.340Z,5.94
2023-04-01T20:33:58.660Z,6.10
2023-04-01T20:36:41.251Z,6.00
2023-04-01T20:39:22.840Z,6.06
2023-04-01T20:42:01.525Z,5.94
2023-04-01T20:44:31.439Z,5.94
2023-04-01T20:47:29.475Z,5.98
2023-04-01T20:50:12.888Z,5.88
2023-04-01T20:52:44.109Z,5.94
2023-04-01T20:55:13.790Z,5.82
2023-04-01T20:57:55.677Z,5.82
2023-04-01T21:00:32.623Z,5.98
2023-04-01T21:03:21.487Z,5.90
2023-04-01T21:06:11.754Z,5.96
2023-04-01T21:08:48.942Z,5.88
2023-04-01T21:11:31.135Z,6.01
2023-04-01T21:14:08.677Z,5.87
2023-04-01T21:16:50.536Z,5.84
2023-04-01T21:19:38.620Z,5.85
2023-04-01T21:22:17.570Z,5.81
2023-04-01T21:25:04.501Z,5.79
2023-04-01T21:28:25.042Z,5.85
2023-04-01T21:31:06.425Z,5.70
2023-04-01T21:33:36.332Z,5.65
2023-04-01T21:36:39.780Z,5.89
2023-04-01T21:39:33.800Z,5.84
2023-04-01T21:42:31.408Z,5.66
2023-04-01T21:45:00.282Z,5.59
2023-04-01T21:47:48.475Z,5.58
2023-04-01T21:50:23.985Z,5.59
2023-04-01T21:52:59.680Z,5.48
2023-04-01T21:55:34.291Z,5.26
2023-04-01T21:58:22.772Z,5.42
2023-04-01T22:00:58.364Z,5.43
2023-04-01T22:04:00.200Z,5.44
2023-04-01T22:06:38.130Z,5.43
2023-04-01T22:09:40.789Z,5.48
2023-04-01T22:12:24.721Z,5.37
2023-04-01T22:15:01.280Z,5.52
2023-04-01T22:17:38.503Z,5.48
2023-04-01T22:20:12.625Z,5.37
2023-04-01T22:23:03.195Z,5.42
2023-04-01T22:26:02.028Z,5.37
2023-04-01T22:28:32.442Z,5.19
2023-04-01T22:31:02.880Z,5.03
2023-04-01T22:33:48.065Z,5.08
2023-04-01T22:36:21.574Z,4.99
2023-04-01T22:39:27.774Z,4.91
2023-04-01T22:42:06.316Z,5.07
2023-04-01T22:44:49.728Z,5.07
2023-04-01T22:47:31.491Z,4.95
2023-04-01T22:50:03.532Z,4.97
2023-04-01T22:52:36.439Z,4.92
2023-04-01T22:55:21.328Z,4.92
2023-04-01T22:58:11.292Z,4.79
2023-04-01T23:00:43.824Z,4.76
2023-04-01T23:03:30.133Z,4.83
2023-04-01T23:06:01.505Z,4.94
2023-04-01T23:08:49.428Z,4.86
2023-04-01T23:11:18.223Z,5.00
2023-04-01T23:13:57.963Z,5.14
2023-04-01T23:16:29.451Z,5.09
2023-04-01T23:19:18.385Z,5.12
2023-04-01T23:21:52.761Z,5.01
2023-04-01T23:24:32.859Z,4.89
2023-04-01T23:27:36.019Z,4.86
2023-04-01T23:30:04.310Z,4.93
2023-04-01T23:32:30.954Z,4.90
2023-04-01T23:35:00.823Z,4.92
2023-04-01T23:37:27.578Z,4.90
2023-04-01T23:39:58.064Z,4.96
2023-04-01T23:42:31.997Z,4.87
2023-04-01T23:45:00.045Z,4.90
2023-04-01T23:47:34.427Z,5.13
2023-04-01T23:50:21.441Z,5.13
2023-04-01T23:52:49.768Z,5.25
2023-04-01T23:55:35.260Z,5.19
2023-04-01T23:58:06.548Z,5.07
